createdAt,value
2018-06-20T00:00:00.042Z,0
2018-06-20T00:01:08.121Z,0
2018-06-20T00:02:16.163Z,0
2018-06-20T00:03:24.268Z,0
2018-06-20T00:04:32.316Z,0
2018-06-20T00:05:40.389Z,0
2018-06-20T00:06:48.453Z,0
2018-06-20T00:07:56.490Z,0
2018-06-20T00:09:04.595Z,0
2018-06-20T00:10:12.656Z,0
2018-06-20T00:11:20.729Z,0
2018-06-20T00:12:28.791Z,0
2018-06-20T00:13:36.831Z,0
2018-06-20T00:14:44.923Z,0
2018-06-20T00:15:52.984Z,0
2018-06-20T00:17:01.065Z,0
2018-06-20T00:18:09.112Z,0
2018-06-20T00:19:17.195Z,0
2018-06-20T00:20:25.256Z,0
2018-06-20T00:21:33.325Z,0
2018-06-20T00:22:41.384Z,0
2018-06-20T00:23:49.455Z,0
2018-06-20T00:24:57.530Z,0
2018-06-20T00:26:05.578Z,0
2018-06-20T00:27:13.636Z,0
2018-06-20T00:28:21.709Z,0
2018-06-20T00:29:29.769Z,0
2018-06-20T00:30:38.114Z,0
2018-06-20T00:31:45.911Z,0
2018-06-20T00:32:53.971Z,0
2018-06-20T00:34:02.045Z,0
2018-06-20T00:35:10.125Z,0
2018-06-20T00:36:18.176Z,0
2018-06-20T00:37:26.210Z,0
2018-06-20T00:38:34.317Z,0
2018-06-20T00:39:42.371Z,0
2018-06-20T00:40:50.434Z,0
2018-06-20T00:41:58.495Z,0
2018-06-20T00:43:06.539Z,0
2018-06-20T00:44:14.636Z,0
2018-06-20T00:45:22.698Z,0
2018-06-20T00:46:30.776Z,0
2018-06-20T00:47:38.835Z,0
2018-06-20T00:48:46.884Z,0
2018-06-20T00:49:54.967Z,0
2018-06-20T00:51:03.030Z,0
2018-06-20T00:52:11.085Z,0
2018-06-20T00:53:19.144Z,0
2018-06-20T00:54:27.224Z,0
2018-06-20T00:55:35.303Z,0
2018-06-20T00:56:43.364Z,0
2018-06-20T00:57:51.416Z,0
2018-06-20T00:58:59.478Z,0
2018-06-20T01:00:07.550Z,0
2018-06-20T01:01:15.619Z,0
2018-06-20T01:02:23.696Z,0
2018-06-20T01:03:31.751Z,0
2018-06-20T01:04:39.803Z,0
2018-06-20T01:05:47.882Z,0
2018-06-20T01:06:55.955Z,0
2018-06-20T01:08:04.010Z,0
2018-06-20T01:09:12.067Z,0
2018-06-20T01:10:20.134Z,0
2018-06-20T01:11:28.223Z,0
2018-06-20T01:12:36.249Z,0
2018-06-20T01:13:44.355Z,0
2018-06-20T01:14:52.413Z,0
2018-06-20T01:16:00.460Z,0
2018-06-20T01:17:08.548Z,0
2018-06-20T01:18:16.587Z,0
2018-06-20T01:19:24.676Z,0
2018-06-20T01:20:32.751Z,0
2018-06-20T01:21:40.796Z,0
2018-06-20T01:22:48.874Z,0
2018-06-20T01:23:56.916Z,0
2018-06-20T01:25:05.004Z,0
2018-06-20T01:26:13.063Z,0
2018-06-20T01:27:21.125Z,0
2018-06-20T01:28:29.198Z,0
2018-06-20T01:29:37.273Z,0
2018-06-20T01:30:45.336Z,0
2018-06-20T01:31:53.389Z,0
2018-06-20T01:33:01.462Z,0
2018-06-20T01:34:09.546Z,0
2018-06-20T01:35:17.589Z,0
2018-06-20T01:36:25.657Z,0
2018-06-20T01:37:33.739Z,0
2018-06-20T01:38:41.805Z,0
2018-06-20T01:39:49.878Z,0
2018-06-20T01:40:57.931Z,0
2018-06-20T01:42:05.994Z,0
2018-06-20T01:43:14.108Z,0
2018-06-20T01:44:22.152Z,0
2018-06-20T01:45:30.200Z,0
2018-06-20T01:46:38.265Z,0
2018-06-20T01:47:46.336Z,0
2018-06-20T01:48:54.399Z,0
2018-06-20T01:50:02.457Z,0
2018-06-20T01:51:10.542Z,0
2018-06-20T01:52:18.613Z,0
2018-06-20T01:53:26.638Z,0
2018-06-20T01:54:34.743Z,0
2018-06-20T01:55:42.849Z,0
2018-06-20T01:56:50.874Z,0
2018-06-20T01:57:58.933Z,0
2018-06-20T01:59:06.992Z,0
2018-06-20T02:00:15.067Z,0
2018-06-20T02:01:23.129Z,0
2018-06-20T02:02:31.193Z,0
2018-06-20T02:03:39.270Z,0
2018-06-20T02:04:47.332Z,0
2018-06-20T02:05:55.404Z,0
2018-06-20T02:07:03.465Z,0
2018-06-20T02:08:11.532Z,0
2018-06-20T02:09:19.604Z,0
2018-06-20T02:10:27.657Z,0
2018-06-20T02:11:35.726Z,0
2018-06-20T02:12:43.796Z,0
2018-06-20T02:13:51.861Z,0
2018-06-20T02:14:59.934Z,0
2018-06-20T02:16:08.015Z,0
2018-06-20T02:17:16.032Z,0
2018-06-20T02:18:24.124Z,0
2018-06-20T02:19:32.189Z,0
2018-06-20T02:20:40.262Z,0
2018-06-20T02:21:48.364Z,0
2018-06-20T02:22:56.367Z,0
2018-06-20T02:24:04.458Z,0
2018-06-20T02:25:12.512Z,0
2018-06-20T02:26:20.779Z,0
2018-06-20T02:27:28.853Z,0
2018-06-20T02:28:36.896Z,0
2018-06-20T02:29:44.970Z,0
2018-06-20T02:30:53.041Z,0
2018-06-20T02:32:01.106Z,0
2018-06-20T02:33:09.176Z,0
2018-06-20T02:34:17.239Z,0
2018-06-20T02:35:25.317Z,0
2018-06-20T02:36:33.476Z,0
2018-06-20T02:37:41.440Z,0
2018-06-20T02:38:49.508Z,0
2018-06-20T02:39:57.587Z,0
2018-06-20T02:41:05.644Z,0
2018-06-20T02:42:13.713Z,0
2018-06-20T02:43:21.816Z,0
2018-06-20T02:44:29.846Z,0
2018-06-20T02:45:37.902Z,0
2018-06-20T02:46:45.987Z,0
2018-06-20T02:47:54.036Z,0
2018-06-20T02:49:02.103Z,0
2018-06-20T02:50:10.183Z,0
2018-06-20T02:51:18.288Z,0
2018-06-20T02:52:26.272Z,0
2018-06-20T02:53:34.369Z,0
2018-06-20T02:54:42.438Z,0
2018-06-20T02:55:50.486Z,0
2018-06-20T02:56:58.565Z,0
2018-06-20T02:58:06.594Z,0
2018-06-20T02:59:14.711Z,0
2018-06-20T03:00:22.750Z,0
2018-06-20T03:01:30.807Z,0
2018-06-20T03:02:38.894Z,0
2018-06-20T03:03:46.942Z,0
2018-06-20T03:04:55.026Z,0
2018-06-20T03:06:03.090Z,0
2018-06-20T03:07:11.157Z,0
2018-06-20T03:08:19.225Z,0
2018-06-20T03:09:27.300Z,0
2018-06-20T03:10:35.351Z,0
2018-06-20T03:11:43.425Z,0
2018-06-20T03:12:51.489Z,0
2018-06-20T03:14:00.614Z,0
2018-06-20T03:15:07.611Z,0
2018-06-20T03:16:15.686Z,0
2018-06-20T03:17:23.745Z,5
2018-06-20T03:18:31.828Z,5
2018-06-20T03:19:39.878Z,5
2018-06-20T03:20:47.956Z,5
2018-06-20T03:21:56.017Z,5
2018-06-20T03:23:04.096Z,5
2018-06-20T03:24:12.153Z,5
2018-06-20T03:25:20.214Z,10
2018-06-20T03:26:28.279Z,10
2018-06-20T03:27:36.335Z,10
2018-06-20T03:28:44.421Z,10
2018-06-20T03:29:52.468Z,10
2018-06-20T03:31:00.566Z,10
2018-06-20T03:32:08.629Z,15
2018-06-20T03:33:16.657Z,15
2018-06-20T03:34:24.755Z,15
2018-06-20T03:35:32.820Z,15
2018-06-20T03:36:40.876Z,20
2018-06-20T03:37:48.956Z,20
2018-06-20T03:38:56.986Z,20
2018-06-20T03:40:05.073Z,20
2018-06-20T03:41:13.144Z,20
2018-06-20T03:42:21.203Z,25
2018-06-20T03:43:29.277Z,25
2018-06-20T03:44:37.337Z,25
2018-06-20T03:45:45.410Z,25
2018-06-20T03:46:53.486Z,30
2018-06-20T03:48:01.547Z,30
2018-06-20T03:49:09.609Z,30
2018-06-20T03:50:17.678Z,35
2018-06-20T03:51:25.739Z,35
2018-06-20T03:52:33.812Z,35
2018-06-20T03:53:41.872Z,35
2018-06-20T03:54:49.944Z,40
2018-06-20T03:55:58.016Z,40
2018-06-20T03:57:06.052Z,40
2018-06-20T03:58:14.144Z,40
2018-06-20T03:59:22.203Z,45
2018-06-20T04:00:30.277Z,45
2018-06-20T04:01:38.333Z,45
2018-06-20T04:02:46.375Z,45
2018-06-20T04:03:54.481Z,50
2018-06-20T04:05:02.531Z,50
2018-06-20T04:06:10.613Z,50
2018-06-20T04:07:18.673Z,55
2018-06-20T04:08:26.706Z,55
2018-06-20T04:09:34.800Z,55
2018-06-20T04:10:42.869Z,55
2018-06-20T04:11:50.946Z,60
2018-06-20T04:12:59.007Z,60
2018-06-20T04:14:07.103Z,60
2018-06-20T04:15:15.169Z,60
2018-06-20T04:16:23.232Z,65
2018-06-20T04:17:31.297Z,65
2018-06-20T04:18:39.354Z,65
2018-06-20T04:19:47.402Z,65
2018-06-20T04:20:55.490Z,70
2018-06-20T04:22:03.576Z,70
2018-06-20T04:23:11.626Z,70
2018-06-20T04:24:19.687Z,70
2018-06-20T04:25:27.751Z,75
2018-06-20T04:26:35.835Z,75
2018-06-20T04:27:44.503Z,75
2018-06-20T04:28:52.181Z,75
2018-06-20T04:30:00.048Z,75
2018-06-20T04:31:08.098Z,80
2018-06-20T04:32:16.142Z,80
2018-06-20T04:33:24.226Z,80
2018-06-20T04:34:32.349Z,80
2018-06-20T04:35:40.363Z,85
2018-06-20T04:36:48.420Z,85
2018-06-20T04:37:56.464Z,85
2018-06-20T04:39:04.567Z,85
2018-06-20T04:40:12.627Z,85
2018-06-20T04:41:20.681Z,90
2018-06-20T04:42:28.758Z,90
2018-06-20T04:43:36.793Z,90
2018-06-20T04:44:45.185Z,90
2018-06-20T04:45:52.951Z,90
2018-06-20T04:47:01.033Z,95
2018-06-20T04:48:09.090Z,95
2018-06-20T04:49:17.163Z,95
2018-06-20T04:50:25.227Z,95
2018-06-20T04:51:33.296Z,100
2018-06-20T04:52:41.351Z,100
2018-06-20T04:53:49.428Z,100
2018-06-20T04:54:57.493Z,100
2018-06-20T04:56:05.559Z,100
2018-06-20T04:57:13.631Z,105
2018-06-20T04:58:23.181Z,105
2018-06-20T04:59:29.762Z,105
2018-06-20T05:00:38.153Z,105
2018-06-20T05:01:45.904Z,105
2018-06-20T05:02:53.975Z,105
2018-06-20T05:04:02.051Z,115
2018-06-20T05:05:10.108Z,150
2018-06-20T05:06:18.159Z,170
2018-06-20T05:07:26.205Z,130
2018-06-20T05:08:34.307Z,130
2018-06-20T05:09:42.384Z,130
2018-06-20T05:10:50.475Z,125
2018-06-20T05:11:58.509Z,120
2018-06-20T05:13:07.130Z,115
2018-06-20T05:14:14.660Z,115
2018-06-20T05:15:22.720Z,120
2018-06-20T05:16:30.817Z,120
2018-06-20T05:17:38.845Z,115
2018-06-20T05:18:47.484Z,115
2018-06-20T05:19:54.983Z,120
2018-06-20T05:21:03.053Z,120
2018-06-20T05:22:11.102Z,120
2018-06-20T05:23:19.181Z,120
2018-06-20T05:24:27.245Z,120
2018-06-20T05:25:35.311Z,120
2018-06-20T05:26:49.837Z,120
2018-06-20T05:27:57.910Z,125
2018-06-20T05:29:05.932Z,125
2018-06-20T05:31:39.270Z,125
2018-06-20T05:32:41.071Z,125
2018-06-20T05:33:49.162Z,130
2018-06-20T05:34:57.211Z,130
2018-06-20T05:36:05.275Z,130
2018-06-20T05:37:13.361Z,130
2018-06-20T05:38:21.407Z,130
2018-06-20T05:39:29.487Z,135
2018-06-20T05:40:37.552Z,135
2018-06-20T05:41:45.634Z,130
2018-06-20T05:42:53.686Z,135
2018-06-20T05:44:01.743Z,135
2018-06-20T05:45:09.811Z,135
2018-06-20T05:46:17.883Z,135
2018-06-20T05:47:25.949Z,135
2018-06-20T05:48:40.992Z,135
2018-06-20T05:49:42.089Z,135
2018-06-20T05:50:50.160Z,135
2018-06-20T05:51:58.240Z,140
2018-06-20T05:53:06.287Z,140
2018-06-20T05:54:14.355Z,140
2018-06-20T05:55:22.440Z,140
2018-06-20T05:56:30.499Z,140
2018-06-20T05:57:38.560Z,140
2018-06-20T05:58:46.603Z,140
2018-06-20T05:59:54.705Z,135
2018-06-20T06:01:03.964Z,135
2018-06-20T06:02:12.045Z,140
2018-06-20T06:03:20.111Z,140
2018-06-20T06:04:28.160Z,140
2018-06-20T06:05:36.219Z,140
2018-06-20T06:06:44.306Z,140
2018-06-20T06:07:52.373Z,140
2018-06-20T06:09:00.431Z,140
2018-06-20T06:10:08.505Z,145
2018-06-20T06:11:16.550Z,140
2018-06-20T06:12:30.916Z,140
2018-06-20T06:13:32.714Z,145
2018-06-20T06:14:42.202Z,145
2018-06-20T06:15:48.856Z,145
2018-06-20T06:16:57.113Z,145
2018-06-20T06:18:04.994Z,145
2018-06-20T06:19:16.467Z,145
2018-06-20T06:20:24.548Z,145
2018-06-20T06:21:32.619Z,145
2018-06-20T06:22:40.684Z,145
2018-06-20T06:23:55.028Z,145
2018-06-20T06:24:56.802Z,145
2018-06-20T06:26:04.931Z,150
2018-06-20T06:27:12.972Z,150
2018-06-20T06:28:21.048Z,150
2018-06-20T06:29:29.105Z,150
2018-06-20T06:30:37.251Z,150
2018-06-20T06:31:52.722Z,150
2018-06-20T06:33:01.777Z,150
2018-06-20T06:34:09.840Z,150
2018-06-20T06:35:17.919Z,150
2018-06-20T06:36:25.956Z,150
2018-06-20T06:37:34.077Z,155
2018-06-20T06:38:42.128Z,155
2018-06-20T06:39:52.807Z,155
2018-06-20T06:41:00.875Z,155
2018-06-20T06:42:08.943Z,155
2018-06-20T06:43:20.640Z,155
2018-06-20T06:44:27.285Z,160
2018-06-20T06:45:35.342Z,160
2018-06-20T06:46:43.402Z,160
2018-06-20T06:47:51.510Z,160
2018-06-20T06:48:59.574Z,160
2018-06-20T06:50:12.891Z,165
2018-06-20T06:51:20.962Z,165
2018-06-20T06:52:29.018Z,165
2018-06-20T06:53:37.081Z,165
2018-06-20T06:54:46.241Z,170
2018-06-20T06:55:54.219Z,170
2018-06-20T06:57:02.305Z,175
2018-06-20T06:58:10.363Z,180
2018-06-20T06:59:18.440Z,205
2018-06-20T07:00:34.119Z,190
2018-06-20T07:01:35.573Z,190
2018-06-20T07:02:43.709Z,225
2018-06-20T07:03:51.697Z,245
2018-06-20T07:05:00.905Z,300
2018-06-20T07:06:09.913Z,410
2018-06-20T07:07:17.922Z,375
2018-06-20T07:08:26.019Z,385
2018-06-20T07:09:34.055Z,935
2018-06-20T07:10:42.120Z,1965
2018-06-20T07:11:50.205Z,2240
2018-06-20T07:13:00.911Z,2075
2018-06-20T07:14:07.556Z,1915
2018-06-20T07:15:15.634Z,2050
2018-06-20T07:16:23.701Z,1745
2018-06-20T07:17:31.769Z,1025
2018-06-20T07:18:43.072Z,520
2018-06-20T07:19:49.747Z,740
2018-06-20T07:20:57.819Z,765
2018-06-20T07:22:05.885Z,790
2018-06-20T07:23:24.730Z,985
2018-06-20T07:24:22.128Z,1395
2018-06-20T07:25:32.319Z,670
2018-06-20T07:26:40.411Z,1480
2018-06-20T07:27:48.478Z,1375
2018-06-20T07:28:56.532Z,1570
2018-06-20T07:30:04.680Z,2175
2018-06-20T07:31:12.707Z,2345
2018-06-20T07:32:20.785Z,2245
2018-06-20T07:33:29.468Z,2195
2018-06-20T07:34:37.562Z,2150
2018-06-20T07:35:45.707Z,2115
2018-06-20T07:36:53.722Z,2155
2018-06-20T07:38:01.785Z,2095
2018-06-20T07:39:15.521Z,2080
2018-06-20T07:40:20.567Z,2125
2018-06-20T07:41:28.654Z,2115
2018-06-20T07:42:36.698Z,2305
2018-06-20T07:43:44.801Z,2340
2018-06-20T07:44:52.880Z,2335
2018-06-20T07:46:00.970Z,2335
2018-06-20T07:47:09.042Z,2380
2018-06-20T07:48:17.121Z,2405
2018-06-20T07:49:25.206Z,2295
2018-06-20T07:50:33.294Z,2340
2018-06-20T07:51:41.377Z,2420
2018-06-20T07:52:49.449Z,2385
2018-06-20T07:53:57.544Z,2445
2018-06-20T07:55:05.633Z,2520
2018-06-20T07:56:13.709Z,2435
2018-06-20T07:57:21.796Z,2285
2018-06-20T07:58:29.875Z,2455
2018-06-20T07:59:37.966Z,2470
2018-06-20T08:00:46.076Z,2415
2018-06-20T08:01:54.111Z,2330
2018-06-20T08:03:02.205Z,2500
2018-06-20T08:04:10.312Z,2475
2018-06-20T08:05:18.383Z,2505
2018-06-20T08:06:26.427Z,2550
2018-06-20T08:07:34.523Z,2495
2018-06-20T08:08:42.634Z,2520
2018-06-20T08:09:50.690Z,2580
2018-06-20T08:10:58.798Z,2575
2018-06-20T08:12:06.861Z,2550
2018-06-20T08:13:14.967Z,2575
2018-06-20T08:14:23.045Z,2625
2018-06-20T08:15:31.131Z,2585
2018-06-20T08:16:39.234Z,2580
2018-06-20T08:17:47.320Z,2660
2018-06-20T08:18:55.444Z,2720
2018-06-20T08:20:03.470Z,2680
2018-06-20T08:21:11.547Z,2670
2018-06-20T08:22:19.640Z,2590
2018-06-20T08:23:27.719Z,2625
2018-06-20T08:24:35.811Z,2675
2018-06-20T08:25:43.895Z,2845
2018-06-20T08:26:51.982Z,2770
2018-06-20T08:28:00.074Z,2810
2018-06-20T08:29:08.186Z,2925
2018-06-20T08:30:16.212Z,2825
2018-06-20T08:31:24.535Z,2770
2018-06-20T08:32:32.405Z,2910
2018-06-20T08:33:40.505Z,2865
2018-06-20T08:34:48.581Z,2845
2018-06-20T08:35:56.645Z,2705
2018-06-20T08:37:04.743Z,2765
2018-06-20T08:38:12.834Z,2485
2018-06-20T08:39:20.922Z,2680
2018-06-20T08:40:29.030Z,2775
2018-06-20T08:41:37.105Z,2755
2018-06-20T08:42:45.196Z,2935
2018-06-20T08:43:53.276Z,2750
2018-06-20T08:45:01.364Z,2760
2018-06-20T08:46:09.455Z,2945
2018-06-20T08:47:17.528Z,3040
2018-06-20T08:48:25.613Z,2830
2018-06-20T08:49:33.699Z,2675
2018-06-20T08:50:41.789Z,2830
2018-06-20T08:51:49.878Z,2735
2018-06-20T08:52:58.007Z,2750
2018-06-20T08:54:06.041Z,2975
2018-06-20T08:55:14.144Z,2995
2018-06-20T08:56:22.226Z,2960
2018-06-20T08:57:30.318Z,2930
2018-06-20T08:58:38.404Z,2925
2018-06-20T08:59:46.483Z,2985
2018-06-20T09:00:54.547Z,2860
2018-06-20T09:02:02.675Z,2780
2018-06-20T09:03:10.744Z,2760
2018-06-20T09:04:18.829Z,2920
2018-06-20T09:05:26.897Z,3015
2018-06-20T09:06:35.017Z,3045
2018-06-20T09:07:43.089Z,3050
2018-06-20T09:08:51.173Z,3090
2018-06-20T09:09:59.268Z,2950
2018-06-20T09:11:07.341Z,2920
2018-06-20T09:12:15.443Z,2795
2018-06-20T09:13:23.520Z,3105
2018-06-20T09:14:31.613Z,2805
2018-06-20T09:15:39.702Z,2870
2018-06-20T09:16:47.781Z,3090
2018-06-20T09:17:55.863Z,2740
2018-06-20T09:19:03.954Z,2760
2018-06-20T09:20:12.032Z,2825
2018-06-20T09:21:20.134Z,3095
2018-06-20T09:22:28.218Z,3150
2018-06-20T09:23:36.278Z,2285
2018-06-20T09:24:44.402Z,735
2018-06-20T09:25:52.476Z,255
2018-06-20T09:27:00.559Z,225
2018-06-20T09:28:08.640Z,205
2018-06-20T09:29:16.703Z,210
2018-06-20T09:30:24.833Z,205
2018-06-20T09:31:32.891Z,200
2018-06-20T09:32:40.977Z,200
2018-06-20T09:33:49.064Z,195
2018-06-20T09:34:57.136Z,190
2018-06-20T09:36:05.238Z,190
2018-06-20T09:37:13.313Z,190
2018-06-20T09:38:21.391Z,190
2018-06-20T09:39:29.479Z,185
2018-06-20T09:40:37.556Z,185
2018-06-20T09:41:45.644Z,185
2018-06-20T09:42:53.718Z,185
2018-06-20T09:44:01.811Z,185
2018-06-20T09:45:09.913Z,185
2018-06-20T09:46:17.957Z,185
2018-06-20T09:47:26.020Z,190
2018-06-20T09:48:34.130Z,190
2018-06-20T09:49:42.195Z,190
2018-06-20T09:50:50.278Z,190
2018-06-20T09:51:58.362Z,190
2018-06-20T09:53:06.409Z,190
2018-06-20T09:54:14.563Z,185
2018-06-20T09:55:22.591Z,185
2018-06-20T09:56:30.674Z,185
2018-06-20T09:57:38.751Z,185
2018-06-20T09:58:46.797Z,185
2018-06-20T09:59:54.917Z,180
2018-06-20T10:01:02.975Z,180
2018-06-20T10:02:11.066Z,180
2018-06-20T10:03:19.140Z,180
2018-06-20T10:04:27.208Z,185
2018-06-20T10:05:35.281Z,185
2018-06-20T10:06:43.421Z,185
2018-06-20T10:07:51.440Z,185
2018-06-20T10:08:59.509Z,185
2018-06-20T10:10:07.584Z,180
2018-06-20T10:11:15.669Z,180
2018-06-20T10:12:23.741Z,180
2018-06-20T10:13:31.828Z,180
2018-06-20T10:14:39.888Z,180
2018-06-20T10:15:47.979Z,180
2018-06-20T10:16:56.027Z,180
2018-06-20T10:18:04.110Z,180
2018-06-20T10:19:12.184Z,185
2018-06-20T10:20:20.286Z,180
2018-06-20T10:21:28.391Z,180
2018-06-20T10:22:36.379Z,180
2018-06-20T10:23:44.490Z,180
2018-06-20T10:24:52.578Z,180
2018-06-20T10:26:00.641Z,180
2018-06-20T10:27:08.721Z,185
2018-06-20T10:28:16.767Z,185
2018-06-20T10:29:24.869Z,185
2018-06-20T10:30:32.945Z,185
2018-06-20T10:31:41.031Z,180
2018-06-20T10:32:49.101Z,180
2018-06-20T10:33:57.170Z,180
2018-06-20T10:35:05.243Z,180
2018-06-20T10:36:13.313Z,185
2018-06-20T10:37:21.402Z,180
2018-06-20T10:38:29.472Z,180
2018-06-20T10:39:37.550Z,180
2018-06-20T10:40:45.625Z,180
2018-06-20T10:41:53.705Z,180
2018-06-20T10:43:01.781Z,180
2018-06-20T10:44:09.839Z,180
2018-06-20T10:45:17.919Z,180
2018-06-20T10:46:26.107Z,180
2018-06-20T10:47:34.079Z,175
2018-06-20T10:48:42.158Z,175
2018-06-20T10:49:50.241Z,180
2018-06-20T10:50:58.297Z,180
2018-06-20T10:52:06.349Z,180
2018-06-20T10:53:14.444Z,180
2018-06-20T10:54:22.528Z,175
2018-06-20T10:55:30.589Z,175
2018-06-20T10:56:38.678Z,175
2018-06-20T10:57:46.720Z,175
2018-06-20T10:58:54.818Z,175
2018-06-20T11:00:02.896Z,170
2018-06-20T11:01:10.962Z,170
2018-06-20T11:02:19.048Z,170
2018-06-20T11:03:27.104Z,175
2018-06-20T11:04:35.180Z,175
2018-06-20T11:05:43.272Z,175
2018-06-20T11:06:51.330Z,175
2018-06-20T11:07:59.410Z,175
2018-06-20T11:09:07.487Z,175
2018-06-20T11:10:15.567Z,175
2018-06-20T11:11:23.648Z,175
2018-06-20T11:12:31.713Z,175
2018-06-20T11:13:39.790Z,170
2018-06-20T11:14:47.867Z,170
2018-06-20T11:15:55.928Z,170
2018-06-20T11:17:04.020Z,175
2018-06-20T11:18:12.084Z,175
2018-06-20T11:19:20.168Z,175
2018-06-20T11:20:28.238Z,175
2018-06-20T11:21:36.283Z,175
2018-06-20T11:22:44.413Z,170
2018-06-20T11:23:52.454Z,170
2018-06-20T11:25:00.532Z,170
2018-06-20T11:26:08.619Z,170
2018-06-20T11:27:16.676Z,170
2018-06-20T11:28:24.777Z,170
2018-06-20T11:29:32.834Z,170
2018-06-20T11:30:40.900Z,170
2018-06-20T11:31:48.977Z,175
2018-06-20T11:32:57.067Z,170
2018-06-20T11:34:05.144Z,170
2018-06-20T11:35:13.194Z,170
2018-06-20T11:36:21.279Z,165
2018-06-20T11:37:29.363Z,165
2018-06-20T11:38:37.422Z,165
2018-06-20T11:39:45.493Z,165
2018-06-20T11:40:53.578Z,165
2018-06-20T11:42:01.669Z,165
2018-06-20T11:43:09.722Z,165
2018-06-20T11:44:17.822Z,165
2018-06-20T11:45:25.888Z,165
2018-06-20T11:46:33.941Z,165
2018-06-20T11:47:42.031Z,165
2018-06-20T11:48:50.110Z,170
2018-06-20T11:49:58.223Z,165
2018-06-20T11:51:06.228Z,165
2018-06-20T11:52:14.333Z,165
2018-06-20T11:53:22.405Z,165
2018-06-20T11:54:30.476Z,165
2018-06-20T11:55:38.559Z,165
2018-06-20T11:56:46.610Z,165
2018-06-20T11:57:54.715Z,165
2018-06-20T11:59:02.796Z,160
2018-06-20T12:00:10.847Z,160
2018-06-20T12:01:18.927Z,160
2018-06-20T12:02:26.981Z,160
2018-06-20T12:03:35.079Z,160
2018-06-20T12:04:43.157Z,160
2018-06-20T12:05:51.227Z,165
2018-06-20T12:06:59.289Z,165
2018-06-20T12:08:07.369Z,165
2018-06-20T12:09:15.455Z,160
2018-06-20T12:10:23.520Z,160
2018-06-20T12:11:31.589Z,160
2018-06-20T12:12:39.666Z,155
2018-06-20T12:13:47.752Z,155
2018-06-20T12:14:55.819Z,155
2018-06-20T12:16:03.900Z,155
2018-06-20T12:17:11.949Z,155
2018-06-20T12:18:20.061Z,150
2018-06-20T12:19:28.119Z,150
2018-06-20T12:20:36.176Z,150
2018-06-20T12:21:44.271Z,150
2018-06-20T12:22:52.339Z,150
2018-06-20T12:24:00.403Z,155
2018-06-20T12:25:08.492Z,150
2018-06-20T12:26:16.528Z,150
2018-06-20T12:27:24.664Z,150
2018-06-20T12:28:32.714Z,150
2018-06-20T12:29:40.808Z,155
2018-06-20T12:30:48.844Z,150
2018-06-20T12:31:56.931Z,150
2018-06-20T12:33:05.011Z,150
2018-06-20T12:34:13.099Z,150
2018-06-20T12:35:21.163Z,150
2018-06-20T12:36:29.246Z,150
2018-06-20T12:37:37.311Z,155
2018-06-20T12:38:45.389Z,155
2018-06-20T12:39:53.480Z,150
2018-06-20T12:41:01.550Z,150
2018-06-20T12:42:09.628Z,150
2018-06-20T12:43:17.696Z,150
2018-06-20T12:44:25.768Z,150
2018-06-20T12:45:33.835Z,150
2018-06-20T12:46:41.907Z,150
2018-06-20T12:47:49.995Z,150
2018-06-20T12:48:58.068Z,150
2018-06-20T12:50:06.123Z,150
2018-06-20T12:51:14.219Z,160
2018-06-20T12:52:22.276Z,155
2018-06-20T12:53:30.359Z,155
2018-06-20T12:54:38.433Z,155
2018-06-20T12:55:46.494Z,155
2018-06-20T12:56:54.590Z,155
2018-06-20T12:58:02.663Z,150
2018-06-20T12:59:10.713Z,155
2018-06-20T13:00:18.818Z,150
2018-06-20T13:01:26.863Z,150
2018-06-20T13:02:34.972Z,150
2018-06-20T13:03:43.044Z,150
2018-06-20T13:04:51.099Z,150
2018-06-20T13:05:59.180Z,150
2018-06-20T13:07:07.263Z,150
2018-06-20T13:08:15.348Z,150
2018-06-20T13:09:23.402Z,150
2018-06-20T13:10:31.491Z,150
2018-06-20T13:11:39.555Z,145
2018-06-20T13:12:47.691Z,145
2018-06-20T13:13:55.747Z,145
2018-06-20T13:15:03.779Z,150
2018-06-20T13:16:11.834Z,150
2018-06-20T13:17:19.949Z,150
2018-06-20T13:18:28.017Z,150
2018-06-20T13:19:36.064Z,150
2018-06-20T13:20:44.158Z,150
2018-06-20T13:21:52.235Z,150
2018-06-20T13:23:00.293Z,150
2018-06-20T13:24:08.375Z,150
2018-06-20T13:25:16.429Z,150
2018-06-20T13:26:24.532Z,150
2018-06-20T13:27:32.601Z,145
2018-06-20T13:28:40.724Z,145
2018-06-20T13:29:48.745Z,145
2018-06-20T13:30:56.806Z,145
2018-06-20T13:32:04.913Z,145
2018-06-20T13:33:12.970Z,145
2018-06-20T13:34:21.040Z,145
2018-06-20T13:35:29.133Z,145
2018-06-20T13:36:37.258Z,145
2018-06-20T13:37:45.277Z,145
2018-06-20T13:38:53.343Z,145
2018-06-20T13:40:01.420Z,145
2018-06-20T13:41:09.493Z,145
2018-06-20T13:42:17.565Z,145
2018-06-20T13:43:25.647Z,145
2018-06-20T13:44:33.719Z,145
2018-06-20T13:45:41.782Z,145
2018-06-20T13:46:49.861Z,150
2018-06-20T13:47:57.946Z,145
2018-06-20T13:49:06.024Z,145
2018-06-20T13:50:14.098Z,145
2018-06-20T13:51:22.146Z,145
2018-06-20T13:52:30.241Z,145
2018-06-20T13:53:38.316Z,145
2018-06-20T13:54:46.356Z,145
2018-06-20T13:55:54.454Z,145
2018-06-20T13:57:02.546Z,145
2018-06-20T13:58:10.598Z,145
2018-06-20T13:59:18.735Z,145
2018-06-20T14:00:26.731Z,145
2018-06-20T14:01:34.835Z,145
2018-06-20T14:02:42.910Z,145
2018-06-20T14:03:50.970Z,145
2018-06-20T14:04:59.058Z,145
2018-06-20T14:06:07.130Z,145
2018-06-20T14:07:15.215Z,145
2018-06-20T14:08:23.276Z,140
2018-06-20T14:09:31.352Z,140
2018-06-20T14:10:39.433Z,140
2018-06-20T14:11:47.502Z,140
2018-06-20T14:12:55.577Z,140
2018-06-20T14:14:03.644Z,140
2018-06-20T14:15:11.748Z,140
2018-06-20T14:16:19.810Z,140
2018-06-20T14:17:27.867Z,140
2018-06-20T14:18:35.949Z,140
2018-06-20T14:19:44.034Z,140
2018-06-20T14:20:52.096Z,140
2018-06-20T14:22:00.167Z,140
2018-06-20T14:23:08.255Z,140
2018-06-20T14:24:16.297Z,140
2018-06-20T14:25:24.395Z,140
2018-06-20T14:26:32.466Z,140
2018-06-20T14:27:40.541Z,140
2018-06-20T14:28:48.615Z,140
2018-06-20T14:29:56.667Z,140
2018-06-20T14:31:04.766Z,140
2018-06-20T14:32:12.842Z,140
2018-06-20T14:33:20.919Z,140
2018-06-20T14:34:28.984Z,140
2018-06-20T14:35:37.060Z,140
2018-06-20T14:36:45.139Z,140
2018-06-20T14:37:53.212Z,140
2018-06-20T14:39:01.304Z,140
2018-06-20T14:40:09.369Z,140
2018-06-20T14:41:17.448Z,140
2018-06-20T14:42:25.526Z,140
2018-06-20T14:43:33.581Z,140
2018-06-20T14:44:41.659Z,140
2018-06-20T14:45:49.741Z,140
2018-06-20T14:46:57.816Z,140
2018-06-20T14:48:05.887Z,140
2018-06-20T14:49:13.952Z,140
2018-06-20T14:50:22.041Z,140
2018-06-20T14:51:30.106Z,140
2018-06-20T14:52:38.192Z,140
2018-06-20T14:53:46.238Z,140
2018-06-20T14:54:54.326Z,140
2018-06-20T14:56:02.408Z,140
2018-06-20T14:57:10.482Z,140
2018-06-20T14:58:18.558Z,140
2018-06-20T14:59:26.613Z,140
2018-06-20T15:00:34.700Z,140
2018-06-20T15:01:42.784Z,140
2018-06-20T15:02:50.854Z,140
2018-06-20T15:03:58.927Z,140
2018-06-20T15:05:06.989Z,140
2018-06-20T15:06:15.061Z,140
2018-06-20T15:07:23.139Z,140
2018-06-20T15:08:31.221Z,140
2018-06-20T15:09:39.291Z,140
2018-06-20T15:10:47.369Z,140
2018-06-20T15:11:55.437Z,140
2018-06-20T15:13:03.526Z,140
2018-06-20T15:14:11.604Z,140
2018-06-20T15:15:19.639Z,140
2018-06-20T15:16:27.738Z,140
2018-06-20T15:17:35.819Z,140
2018-06-20T15:18:43.902Z,140
2018-06-20T15:19:51.964Z,135
2018-06-20T15:21:00.047Z,135
2018-06-20T15:22:08.143Z,135
2018-06-20T15:23:16.186Z,135
2018-06-20T15:24:24.277Z,135
2018-06-20T15:25:32.354Z,135
2018-06-20T15:26:41.225Z,135
2018-06-20T15:27:48.558Z,135
2018-06-20T15:28:56.569Z,135
2018-06-20T15:30:04.652Z,135
2018-06-20T15:31:12.727Z,135
2018-06-20T15:32:20.803Z,135
2018-06-20T15:33:28.872Z,135
2018-06-20T15:34:36.925Z,135
2018-06-20T15:35:45.026Z,135
2018-06-20T15:36:53.106Z,135
2018-06-20T15:38:01.204Z,135
2018-06-20T15:39:09.287Z,135
2018-06-20T15:40:17.314Z,135
2018-06-20T15:41:25.384Z,135
2018-06-20T15:42:33.480Z,135
2018-06-20T15:43:41.562Z,135
2018-06-20T15:44:49.677Z,135
2018-06-20T15:45:57.715Z,135
2018-06-20T15:47:05.787Z,135
2018-06-20T15:48:13.830Z,135
2018-06-20T15:49:21.907Z,135
2018-06-20T15:50:29.976Z,135
2018-06-20T15:51:38.059Z,135